Terminal Aerodrome Forecast
Issued by NWS

Home | Current Version | Previous Version | Text Only | Print | Product List | Glossary On
Versions: 1 2 3 4 5 6 7 8 9 10 11 12 13 14 15 16 17 18 19 20
000
FTUS43 KICT 142122 AAB
TAFHUT
TAF AMD
KHUT 142122Z 1421/1518 18010KT 1SM -DZ BR OVC002
      TEMPO 1421/1501 3SM BR OVC005
     FM150100 17011KT 3SM BR OVC005
     FM150700 25007KT P6SM BKN008
     FM150900 34008KT P6SM SCT015
     FM151000 35010KT P6SM SCT060
     FM151200 36016G24KT P6SM FEW110=

USA.gov is the U.S. government's official web portal to all federal, state and local government web resources and services.